createdAt,value
2018-06-09T00:01:34.911Z,95204.86
2018-06-09T00:04:04.251Z,95210.27
2018-06-09T00:06:33.397Z,95214.77
2018-06-09T00:09:02.557Z,95209.52
2018-06-09T00:11:31.478Z,95206.50
2018-06-09T00:14:00.970Z,95203.14
2018-06-09T00:16:30.118Z,95202.27
2018-06-09T00:18:59.273Z,95203.14
2018-06-09T00:21:28.449Z,95207.09
2018-06-09T00:23:57.646Z,95206.41
2018-06-09T00:26:26.855Z,95208.95
2018-06-09T00:28:56.014Z,95211.27
2018-06-09T00:31:25.157Z,95214.52
2018-06-09T00:33:54.313Z,95213.11
2018-06-09T00:36:23.245Z,95217.06
2018-06-09T00:38:52.634Z,95216.68
2018-06-09T00:41:21.796Z,95223.93
2018-06-09T00:43:50.967Z,95226.03
2018-06-09T00:46:20.121Z,95226.58
2018-06-09T00:48:49.285Z,95229.02
2018-06-09T00:51:18.449Z,95227.13
2018-06-09T00:53:47.602Z,95220.73
2018-06-09T00:56:48.537Z,95223.01
2018-06-09T00:59:17.673Z,95224.63
2018-06-09T01:01:46.849Z,95216.80
2018-06-09T01:04:16.865Z,95215.81
2018-06-09T01:06:46.021Z,95218.41
2018-06-09T01:09:15.195Z,95213.00
2018-06-09T01:11:44.374Z,95208.34
2018-06-09T01:14:13.550Z,95197.87
2018-06-09T01:16:42.705Z,95196.94
2018-06-09T01:19:11.857Z,95189.95
2018-06-09T01:21:41.049Z,95187.86
2018-06-09T01:24:10.309Z,95190.38
2018-06-09T01:26:39.453Z,95182.69
2018-06-09T01:29:08.649Z,95190.38
2018-06-09T01:31:37.793Z,95187.09
2018-06-09T01:34:06.972Z,95188.34
2018-06-09T01:36:36.125Z,95184.16
2018-06-09T01:39:08.366Z,95188.98
2018-06-09T01:41:37.838Z,95183.37
2018-06-09T01:44:07.017Z,95181.53
2018-06-09T01:46:36.204Z,95173.25
2018-06-09T01:49:05.370Z,95181.85
2018-06-09T01:51:34.541Z,95183.75
2018-06-09T01:54:03.726Z,95184.94
2018-06-09T01:56:32.837Z,95185.86
2018-06-09T01:59:01.999Z,95183.58
2018-06-09T02:01:31.162Z,95180.22
2018-06-09T02:04:00.360Z,95168.28
2018-06-09T02:06:29.529Z,95171.31
2018-06-09T02:08:58.689Z,95166.82
2018-06-09T02:11:27.849Z,95165.30
2018-06-09T02:13:57.020Z,95163.73
2018-06-09T02:16:26.267Z,95163.63
2018-06-09T02:18:55.418Z,95165.77
2018-06-09T02:21:24.573Z,95161.05
2018-06-09T02:23:53.742Z,95168.41
2018-06-09T02:26:22.897Z,95174.73
2018-06-09T02:28:52.047Z,95171.59
2018-06-09T02:31:21.214Z,95180.52
2018-06-09T02:33:50.451Z,95178.73
2018-06-09T02:36:19.648Z,95182.90
2018-06-09T02:38:48.930Z,95189.97
2018-06-09T02:41:18.073Z,95200.95
2018-06-09T02:43:47.221Z,95205.77
2018-06-09T02:46:16.377Z,95212.58
2018-06-09T02:48:45.535Z,95210.65
2018-06-09T02:51:14.681Z,95213.13
2018-06-09T02:53:43.853Z,95212.80
2018-06-09T02:56:13.005Z,95217.41
2018-06-09T02:58:42.206Z,95206.79
2018-06-09T03:01:11.422Z,95209.60
2018-06-09T03:03:40.602Z,95206.98
2018-06-09T03:06:09.744Z,95202.56
2018-06-09T03:08:38.897Z,95195.80
2018-06-09T03:11:08.063Z,95189.91
2018-06-09T03:13:37.310Z,95193.69
2018-06-09T03:16:06.470Z,95196.97
2018-06-09T03:18:35.612Z,95195.09
2018-06-09T03:21:04.760Z,95202.71
2018-06-09T03:23:33.793Z,95214.95
2018-06-09T03:26:02.947Z,95223.16
2018-06-09T03:28:32.089Z,95224.41
2018-06-09T03:31:01.242Z,95230.36
2018-06-09T03:33:30.401Z,95224.69
2018-06-09T03:35:59.553Z,95228.20
2018-06-09T03:38:28.745Z,95237.08
2018-06-09T03:40:58.965Z,95234.07
2018-06-09T03:43:28.162Z,95240.95
2018-06-09T03:45:57.273Z,95233.21
2018-06-09T03:48:26.439Z,95243.52
2018-06-09T03:50:55.600Z,95241.89
2018-06-09T03:53:24.753Z,95246.85
2018-06-09T03:55:53.968Z,95243.97
2018-06-09T03:58:26.212Z,95252.48
2018-06-09T04:00:55.365Z,95254.51
2018-06-09T04:03:24.644Z,95254.20
2018-06-09T04:05:54.013Z,95265.13
2018-06-09T04:08:23.161Z,95262.07
2018-06-09T04:10:52.339Z,95261.87
2018-06-09T04:13:21.482Z,95258.54
2018-06-09T04:15:50.736Z,95255.14
2018-06-09T04:18:19.933Z,95254.77
2018-06-09T04:20:49.083Z,95254.45
2018-06-09T04:23:18.222Z,95248.19
2018-06-09T04:25:47.381Z,95249.12
2018-06-09T04:28:16.549Z,95258.70
2018-06-09T04:30:45.722Z,95257.72
2018-06-09T04:33:14.886Z,95264.11
2018-06-09T04:35:44.121Z,95269.98
2018-06-09T04:38:13.275Z,95273.78
2018-06-09T04:40:42.424Z,95287.41
2018-06-09T04:43:11.569Z,95283.08
2018-06-09T04:45:40.722Z,95279.50
2018-06-09T04:48:09.985Z,95283.45
2018-06-09T04:50:39.129Z,95293.45
2018-06-09T04:53:08.269Z,95290.80
2018-06-09T04:55:37.426Z,95290.06
2018-06-09T04:58:06.661Z,95289.59
2018-06-09T05:00:35.817Z,95282.66
2018-06-09T05:03:04.965Z,95285.05
2018-06-09T05:05:34.173Z,95298.02
2018-06-09T05:08:03.335Z,95301.27
2018-06-09T05:10:32.497Z,95291.57
2018-06-09T05:13:01.697Z,95297.27
2018-06-09T05:15:30.841Z,95297.16
2018-06-09T05:18:00.007Z,95302.14
2018-06-09T05:20:29.439Z,95301.16
2018-06-09T05:22:58.594Z,95299.23
2018-06-09T05:25:27.742Z,95293.33
2018-06-09T05:27:56.913Z,95289.65
2018-06-09T05:30:26.031Z,95297.59
2018-06-09T05:32:55.541Z,95299.06
2018-06-09T05:35:24.809Z,95297.83
2018-06-09T05:37:53.948Z,95295.06
2018-06-09T05:40:23.137Z,95307.90
2018-06-09T05:42:52.285Z,95303.06
2018-06-09T05:45:21.728Z,95302.48
2018-06-09T05:47:50.882Z,95296.22
2018-06-09T05:50:20.037Z,95298.00
2018-06-09T05:52:49.197Z,95286.08
2018-06-09T05:55:18.344Z,95295.39
2018-06-09T05:57:47.828Z,95289.50
2018-06-09T06:00:16.969Z,95286.78
2018-06-09T06:02:46.109Z,95280.54
2018-06-09T06:05:15.262Z,95290.16
2018-06-09T06:07:44.421Z,95290.52
2018-06-09T06:10:13.569Z,95285.13
2018-06-09T06:12:42.738Z,95285.53
2018-06-09T06:15:12.201Z,95271.86
2018-06-09T06:17:41.349Z,95272.88
2018-06-09T06:20:10.488Z,95271.94
2018-06-09T06:22:39.661Z,95275.61
2018-06-09T06:25:08.802Z,95276.52
2018-06-09T06:27:37.958Z,95283.74
2018-06-09T06:30:07.189Z,95284.41
2018-06-09T06:32:36.097Z,95286.61
2018-06-09T06:35:05.299Z,95278.19
2018-06-09T06:37:34.449Z,95277.92
2018-06-09T06:40:03.605Z,95280.48
2018-06-09T06:42:33.069Z,95276.56
2018-06-09T06:45:02.230Z,95272.76
2018-06-09T06:47:31.367Z,95274.52
2018-06-09T06:50:00.583Z,95276.81
2018-06-09T06:52:29.765Z,95277.21
2018-06-09T06:54:58.925Z,95277.34
2018-06-09T06:57:28.157Z,95283.33
2018-06-09T06:59:57.557Z,95277.02
2018-06-09T07:02:26.697Z,95288.36
2018-06-09T07:04:55.849Z,95288.42
2018-06-09T07:07:24.999Z,95295.94
2018-06-09T07:09:54.149Z,95300.95
2018-06-09T07:12:23.317Z,95296.11
2018-06-09T07:14:52.466Z,95287.86
2018-06-09T07:17:22.124Z,95287.11
2018-06-09T07:19:51.284Z,95291.53
2018-06-09T07:22:20.443Z,95299.30
2018-06-09T07:24:49.602Z,95301.81
2018-06-09T07:27:18.749Z,95316.58
2018-06-09T07:29:47.966Z,95306.81
2018-06-09T07:32:17.132Z,95303.92
2018-06-09T07:34:46.306Z,95309.45
2018-06-09T07:37:15.553Z,95305.20
2018-06-09T07:39:44.711Z,95316.97
2018-06-09T07:42:13.873Z,95318.75
2018-06-09T07:44:43.013Z,95316.72
2018-06-09T07:47:12.185Z,95323.80
2018-06-09T07:49:41.609Z,95314.01
2018-06-09T07:52:10.762Z,95317.95
2018-06-09T07:54:39.913Z,95316.92
2018-06-09T07:57:09.092Z,95315.02
2018-06-09T07:59:38.297Z,95316.72
2018-06-09T08:02:07.402Z,95319.91
2018-06-09T08:04:36.610Z,95321.27
2018-06-09T08:07:05.811Z,95325.47
2018-06-09T08:09:34.976Z,95322.67
2018-06-09T08:12:04.129Z,95326.06
2018-06-09T08:14:33.289Z,95318.75
2018-06-09T08:17:02.510Z,95312.22
2018-06-09T08:19:31.708Z,95311.70
2018-06-09T08:22:00.831Z,95319.39
2018-06-09T08:26:58.257Z,95321.98
2018-06-09T08:29:27.442Z,95322.27
2018-06-09T08:31:56.597Z,95326.10
2018-06-09T08:34:25.745Z,95321.13
2018-06-09T08:36:54.957Z,95329.45
2018-06-09T08:39:24.129Z,95326.14
2018-06-09T08:41:53.337Z,95326.28
2018-06-09T08:44:22.746Z,95335.20
2018-06-09T08:46:51.945Z,95326.88
2018-06-09T08:49:21.253Z,95327.92
2018-06-09T08:51:50.581Z,95325.03
2018-06-09T08:54:19.731Z,95326.98
2018-06-09T08:56:48.894Z,95320.59
2018-06-09T08:59:18.165Z,95325.50
2018-06-09T09:01:47.320Z,95329.95
2018-06-09T09:04:16.486Z,95325.71
2018-06-09T09:06:45.738Z,95326.66
2018-06-09T09:09:14.947Z,95314.86
2018-06-09T09:11:44.142Z,95320.55
2018-06-09T09:14:13.333Z,95327.16
2018-06-09T09:16:42.497Z,95334.34
2018-06-09T09:19:11.661Z,95317.17
2018-06-09T09:21:40.820Z,95317.62
2018-06-09T09:24:10.017Z,95317.19
2018-06-09T09:26:39.174Z,95315.47
2018-06-09T09:29:08.409Z,95315.36
2018-06-09T09:31:37.608Z,95321.05
2018-06-09T09:34:06.805Z,95321.05
2018-06-09T09:36:35.973Z,95320.14
2018-06-09T09:39:08.633Z,95321.05
2018-06-09T09:41:37.901Z,95326.91
2018-06-09T09:44:07.201Z,95319.64
2018-06-09T09:46:36.366Z,95324.53
2018-06-09T09:49:05.859Z,95322.13
2018-06-09T09:51:35.021Z,95319.19
2018-06-09T09:54:04.185Z,95317.93
2018-06-09T09:56:33.369Z,95318.04
2018-06-09T09:59:02.522Z,95322.47
2018-06-09T10:01:31.662Z,95313.73
2018-06-09T10:04:00.869Z,95315.47
2018-06-09T10:06:30.087Z,95313.77
2018-06-09T10:08:59.233Z,95317.51
2018-06-09T10:11:28.399Z,95316.61
2018-06-09T10:13:57.541Z,95311.01
2018-06-09T10:16:26.736Z,95318.39
2018-06-09T10:18:55.953Z,95306.46
2018-06-09T10:21:25.264Z,95299.91
2018-06-09T10:23:54.405Z,95300.36
2018-06-09T10:26:23.577Z,95295.88
2018-06-09T10:28:52.765Z,95300.89
2018-06-09T10:31:21.946Z,95298.47
2018-06-09T10:33:51.125Z,95288.91
2018-06-09T10:36:20.273Z,95279.98
2018-06-09T10:38:49.530Z,95281.05
2018-06-09T10:41:18.754Z,95278.85
2018-06-09T10:43:47.941Z,95284.72
2018-06-09T10:46:17.093Z,95285.32
2018-06-09T10:48:46.269Z,95279.20
2018-06-09T10:51:15.432Z,95283.44
2018-06-09T10:53:44.633Z,95290.75
2018-06-09T10:56:13.814Z,95285.22
2018-06-09T10:58:43.029Z,95278.84
2018-06-09T11:01:12.239Z,95266.42
2018-06-09T11:03:41.398Z,95273.89
2018-06-09T11:06:10.615Z,95268.16
2018-06-09T11:08:39.833Z,95268.75
2018-06-09T11:11:09.017Z,95269.86
2018-06-09T11:13:38.216Z,95266.34
2018-06-09T11:16:07.398Z,95272.80
2018-06-09T11:18:36.602Z,95265.05
2018-06-09T11:21:05.757Z,95265.95
2018-06-09T11:23:35.030Z,95262.53
2018-06-09T11:26:04.201Z,95262.30
2018-06-09T11:28:33.353Z,95262.30
2018-06-09T11:31:02.553Z,95263.41
2018-06-09T11:33:31.768Z,95252.90
2018-06-09T11:36:00.930Z,95252.37
2018-06-09T11:38:30.077Z,95255.44
2018-06-09T11:40:59.225Z,95252.79
2018-06-09T11:43:28.397Z,95254.82
2018-06-09T11:45:57.549Z,95249.23
2018-06-09T11:48:26.702Z,95244.37
2018-06-09T11:50:55.846Z,95241.33
2018-06-09T11:53:24.867Z,95248.86
2018-06-09T11:55:54.039Z,95240.11
2018-06-09T11:58:23.193Z,95244.93
2018-06-09T12:00:52.342Z,95235.63
2018-06-09T12:03:21.553Z,95233.23
2018-06-09T12:05:50.701Z,95229.55
2018-06-09T12:08:19.853Z,95233.30
2018-06-09T12:10:49.021Z,95228.82
2018-06-09T12:13:18.318Z,95220.66
2018-06-09T12:15:47.465Z,95220.91
2018-06-09T12:18:16.648Z,95220.28
2018-06-09T12:20:45.812Z,95214.41
2018-06-09T12:23:14.957Z,95212.41
2018-06-09T12:25:44.138Z,95203.47
2018-06-09T12:28:13.306Z,95207.58
2018-06-09T12:30:42.701Z,95209.00
2018-06-09T12:33:11.879Z,95207.84
2018-06-09T12:35:41.034Z,95201.09
2018-06-09T12:38:10.255Z,95196.38
2018-06-09T12:40:39.422Z,95193.63
2018-06-09T12:43:08.590Z,95194.88
2018-06-09T12:45:37.734Z,95195.16
2018-06-09T12:48:06.879Z,95190.20
2018-06-09T12:50:35.925Z,95184.23
2018-06-09T12:53:05.104Z,95176.72
2018-06-09T12:55:34.429Z,95169.70
2018-06-09T12:58:03.877Z,95173.88
2018-06-09T13:00:32.796Z,95174.08
2018-06-09T13:03:02.016Z,95163.91
2018-06-09T13:05:31.161Z,95163.95
2018-06-09T13:08:00.332Z,95154.58
2018-06-09T13:10:29.466Z,95156.66
2018-06-09T13:12:58.617Z,95152.47
2018-06-09T13:15:27.778Z,95153.31
2018-06-09T13:17:56.952Z,95152.67
2018-06-09T13:20:26.167Z,95153.73
2018-06-09T13:22:55.321Z,95149.94
2018-06-09T13:25:24.486Z,95150.91
2018-06-09T13:27:53.638Z,95141.89
2018-06-09T13:30:22.802Z,95140.61
2018-06-09T13:32:51.992Z,95140.01
2018-06-09T13:35:21.130Z,95128.39
2018-06-09T13:37:50.276Z,95125.66
2018-06-09T13:40:19.449Z,95125.02
2018-06-09T13:42:48.702Z,95131.05
2018-06-09T13:45:17.862Z,95131.67
2018-06-09T13:47:47.035Z,95129.83
2018-06-09T13:50:16.180Z,95130.20
2018-06-09T13:52:45.333Z,95129.42
2018-06-09T13:55:14.481Z,95126.67
2018-06-09T13:57:43.650Z,95120.77
2018-06-09T14:00:12.817Z,95123.09
2018-06-09T14:02:41.972Z,95127.30
2018-06-09T14:05:11.157Z,95125.67
2018-06-09T14:07:40.305Z,95124.92
2018-06-09T14:10:09.585Z,95121.70
2018-06-09T14:12:38.743Z,95122.47
2018-06-09T14:15:07.882Z,95108.72
2018-06-09T14:17:37.183Z,95113.19
2018-06-09T14:20:06.334Z,95108.19
2018-06-09T14:22:35.485Z,95104.75
2018-06-09T14:25:04.657Z,95099.73
2018-06-09T14:27:33.816Z,95104.88
2018-06-09T14:30:03.237Z,95106.36
2018-06-09T14:32:32.408Z,95103.09
2018-06-09T14:35:01.569Z,95101.92
2018-06-09T14:37:30.748Z,95104.94
2018-06-09T14:39:59.913Z,95102.37
2018-06-09T14:42:29.108Z,95114.99
2018-06-09T14:44:58.301Z,95126.75
2018-06-09T14:47:27.450Z,95122.08
2018-06-09T14:49:56.617Z,95122.55
2018-06-09T14:52:25.784Z,95119.89
2018-06-09T14:54:55.141Z,95124.67
2018-06-09T14:57:24.456Z,95139.92
2018-06-09T14:59:53.620Z,95134.91
2018-06-09T15:02:22.829Z,95137.66
2018-06-09T15:04:51.974Z,95134.77
2018-06-09T15:07:21.137Z,95138.27
2018-06-09T15:16:54.997Z,95145.86
2018-06-09T15:19:24.154Z,95138.27
2018-06-09T15:21:53.350Z,95139.63
2018-06-09T15:24:22.511Z,95140.17
2018-06-09T15:26:51.665Z,95146.72
2018-06-09T15:29:20.814Z,95142.59
2018-06-09T15:31:50.127Z,95129.81
2018-06-09T15:34:19.280Z,95127.95
2018-06-09T15:36:48.496Z,95125.38
2018-06-09T15:39:17.664Z,95132.53
2018-06-09T15:41:46.819Z,95138.58
2018-06-09T15:44:15.953Z,95126.07
2018-06-09T15:46:45.123Z,95120.93
2018-06-09T15:49:14.277Z,95115.55
2018-06-09T15:51:43.489Z,95112.48
2018-06-09T15:54:12.634Z,95123.17
2018-06-09T15:56:41.797Z,95136.27
2018-06-09T15:59:10.965Z,95146.59
2018-06-09T16:01:40.338Z,95152.73
2018-06-09T16:04:09.524Z,95156.03
2018-06-09T16:06:38.745Z,95153.06
2018-06-09T16:09:08.935Z,95153.66
2018-06-09T16:11:38.077Z,95165.62
2018-06-09T16:14:07.256Z,95158.35
2018-06-09T16:16:36.461Z,95163.09
2018-06-09T16:19:05.661Z,95160.67
2018-06-09T16:21:34.869Z,95168.52
2018-06-09T16:24:04.054Z,95170.33
2018-06-09T16:26:33.254Z,95166.16
2018-06-09T16:29:02.521Z,95163.09
2018-06-09T16:31:31.838Z,95166.06
2018-06-09T16:34:01.037Z,95164.81
2018-06-09T16:36:30.197Z,95170.83
2018-06-09T16:38:59.362Z,95174.56
2018-06-09T16:41:28.525Z,95169.92
2018-06-09T16:43:57.745Z,95174.91
2018-06-09T16:46:26.943Z,95170.38
2018-06-09T16:48:56.097Z,95170.61
2018-06-09T16:51:25.334Z,95162.84
2018-06-09T16:53:54.536Z,95159.45
2018-06-09T16:56:23.732Z,95161.61
2018-06-09T16:58:52.916Z,95156.48
2018-06-09T17:01:22.123Z,95150.93
2018-06-09T17:03:51.342Z,95141.74
2018-06-09T17:06:20.578Z,95141.95
2018-06-09T17:08:49.829Z,95140.14
2018-06-09T17:11:18.982Z,95149.11
2018-06-09T17:13:48.147Z,95150.58
2018-06-09T17:16:17.374Z,95149.57
2018-06-09T17:18:46.698Z,95147.16
2018-06-09T17:21:15.850Z,95146.25
2018-06-09T17:23:45.100Z,95152.39
2018-06-09T17:26:14.306Z,95159.88
2018-06-09T17:28:43.461Z,95161.47
2018-06-09T17:31:12.696Z,95156.03
2018-06-09T17:33:42.038Z,95153.06
2018-06-09T17:36:11.313Z,95148.97
2018-06-09T17:38:40.457Z,95138.08
2018-06-09T17:41:09.701Z,95140.80
2018-06-09T17:43:38.902Z,95141.05
2018-06-09T17:46:08.065Z,95132.64
2018-06-09T17:51:47.759Z,95137.28
2018-06-09T17:54:17.157Z,95130.81
2018-06-09T17:56:46.651Z,95140.24
2018-06-09T17:59:16.000Z,95139.80
2018-06-09T18:01:46.492Z,95142.41
2018-06-09T18:04:16.035Z,95148.98
2018-06-09T18:06:45.444Z,95150.23
2018-06-09T18:09:14.886Z,95155.02
2018-06-09T18:11:44.247Z,95155.33
2018-06-09T18:14:13.661Z,95159.20
2018-06-09T18:16:43.109Z,95162.84
2018-06-09T18:19:12.621Z,95166.68
2018-06-09T18:21:42.065Z,95168.73
2018-06-09T18:24:11.415Z,95174.19
2018-06-09T18:26:40.893Z,95176.00
2018-06-09T18:29:10.352Z,95177.92
2018-06-09T18:31:39.780Z,95179.03
2018-06-09T18:34:09.153Z,95176.91
2018-06-09T18:36:38.562Z,95177.46
2018-06-09T18:39:10.029Z,95174.95
2018-06-09T18:41:39.475Z,95173.72
2018-06-09T18:44:08.949Z,95168.94
2018-06-09T18:46:38.451Z,95170.41
2018-06-09T18:49:07.787Z,95165.41
2018-06-09T18:51:37.126Z,95175.29
2018-06-09T18:54:07.581Z,95176.41
2018-06-09T18:56:38.040Z,95181.05
2018-06-09T18:59:09.043Z,95179.23
2018-06-09T19:01:38.958Z,95178.09
2018-06-09T19:04:08.629Z,95183.19
2018-06-09T19:06:38.062Z,95185.20
2018-06-09T19:09:10.066Z,95188.06
2018-06-09T19:11:39.533Z,95188.61
2018-06-09T19:14:08.987Z,95187.66
2018-06-09T19:16:38.854Z,95188.80
2018-06-09T19:19:08.281Z,95185.83
2018-06-09T19:21:38.511Z,95192.98
2018-06-09T19:24:08.429Z,95197.81
2018-06-09T19:26:37.825Z,95201.44
2018-06-09T19:29:07.258Z,95210.16
2018-06-09T19:31:36.777Z,95213.78
2018-06-09T19:34:06.205Z,95216.38
2018-06-09T19:36:36.748Z,95222.37
2018-06-09T19:39:08.533Z,95238.70
2018-06-09T19:41:38.106Z,95246.16
2018-06-09T19:44:07.534Z,95248.75
2018-06-09T19:46:37.062Z,95250.58
2018-06-09T19:49:06.976Z,95249.68
2018-06-09T19:51:36.391Z,95248.53
2018-06-09T19:54:05.829Z,95250.85
2018-06-09T19:56:35.266Z,95243.70
2018-06-09T19:59:04.813Z,95250.85
2018-06-09T20:01:34.186Z,95245.60
2018-06-09T20:04:03.611Z,95249.88
2018-06-09T20:06:33.221Z,95250.02
2018-06-09T20:09:02.727Z,95252.03
2018-06-09T20:11:32.156Z,95252.59
2018-06-09T20:14:02.455Z,95252.03
2018-06-09T20:16:31.872Z,95253.17
2018-06-09T20:19:01.341Z,95257.12
2018-06-09T20:21:30.739Z,95255.46
2018-06-09T20:24:00.282Z,95263.03
2018-06-09T20:26:29.852Z,95268.17
2018-06-09T20:28:59.295Z,95274.29
2018-06-09T20:31:28.737Z,95273.27
2018-06-09T20:33:58.441Z,95267.58
2018-06-09T20:36:28.692Z,95269.38
2018-06-09T20:38:58.660Z,95261.67
2018-06-09T20:41:28.048Z,95269.63
2018-06-09T20:43:57.443Z,95272.92
2018-06-09T20:46:27.079Z,95279.20
2018-06-09T20:48:56.996Z,95276.42
2018-06-09T20:51:26.739Z,95277.75
2018-06-09T20:53:56.751Z,95275.68
2018-06-09T20:56:26.288Z,95279.08
2018-06-09T20:58:56.051Z,95277.25
2018-06-09T21:01:25.929Z,95280.25
2018-06-09T21:03:55.688Z,95285.69
2018-06-09T21:06:25.409Z,95283.27
2018-06-09T21:08:54.976Z,95282.59
2018-06-09T21:11:24.760Z,95282.84
2018-06-09T21:13:54.493Z,95285.47
2018-06-09T21:16:24.194Z,95276.81
2018-06-09T21:18:53.769Z,95286.09
2018-06-09T21:21:23.459Z,95292.13
2018-06-09T21:23:53.434Z,95266.00
2018-06-09T21:26:23.177Z,95280.59
2018-06-09T21:28:56.580Z,95285.88
2018-06-09T21:31:31.438Z,95286.50
2018-06-09T21:34:21.781Z,95286.61
2018-06-09T21:36:57.662Z,95297.20
2018-06-09T21:39:33.181Z,95298.30
2018-06-09T21:42:08.317Z,95299.66
2018-06-09T21:44:41.966Z,95302.70
2018-06-09T21:47:11.694Z,95301.77
2018-06-09T21:49:41.265Z,95311.48
2018-06-09T21:52:10.851Z,95317.66
2018-06-09T21:54:40.271Z,95319.16
2018-06-09T21:57:09.881Z,95321.98
2018-06-09T21:59:39.367Z,95325.25
2018-06-09T22:02:09.043Z,95323.56
2018-06-09T22:04:38.630Z,95326.75
2018-06-09T22:07:08.052Z,95325.39
2018-06-09T22:09:37.643Z,95321.02
2018-06-09T22:12:07.074Z,95319.91
2018-06-09T22:14:36.547Z,95323.58
2018-06-09T22:17:05.943Z,95328.13
2018-06-09T22:19:35.417Z,95330.84
2018-06-09T22:22:05.126Z,95337.93
2018-06-09T22:24:34.460Z,95332.52
2018-06-09T22:27:03.802Z,95329.00
2018-06-09T22:29:33.508Z,95334.75
2018-06-09T22:32:03.277Z,95333.39
2018-06-09T22:34:32.805Z,95328.03
2018-06-09T22:37:02.232Z,95336.32
2018-06-09T22:39:31.694Z,95341.38
2018-06-09T22:42:01.127Z,95338.48
2018-06-09T22:44:30.509Z,95344.89
2018-06-09T22:46:59.862Z,95339.84
2018-06-09T22:49:29.367Z,95345.42
2018-06-09T22:51:58.837Z,95339.31
2018-06-09T22:54:28.169Z,95337.93
2018-06-09T22:56:57.514Z,95332.36
2018-06-09T22:59:26.845Z,95341.36
2018-06-09T23:01:56.334Z,95330.02
2018-06-09T23:04:25.663Z,95329.14
2018-06-09T23:06:55.178Z,95321.26
2018-06-09T23:09:24.701Z,95320.78
2018-06-09T23:11:54.195Z,95319.83
2018-06-09T23:14:23.788Z,95320.63
2018-06-09T23:16:53.727Z,95325.00
2018-06-09T23:19:23.195Z,95323.97
2018-06-09T23:21:52.592Z,95323.16
2018-06-09T23:24:21.999Z,95322.47
2018-06-09T23:26:51.526Z,95315.91
2018-06-09T23:29:20.959Z,95312.39
2018-06-09T23:31:50.363Z,95313.20
2018-06-09T23:34:19.738Z,95312.97
2018-06-09T23:36:49.186Z,95310.95
2018-06-09T23:39:18.538Z,95310.73
2018-06-09T23:41:47.863Z,95309.12
2018-06-09T23:44:17.182Z,95308.32
2018-06-09T23:46:46.526Z,95303.70
2018-06-09T23:49:15.847Z,95310.48
2018-06-09T23:51:45.198Z,95303.22
2018-06-09T23:54:14.546Z,95307.37
2018-06-09T23:56:44.142Z,95301.94
2018-06-09T23:59:13.473Z,95296.70
